createdAt,value
2018-09-05T00:00:03.362Z,93.90
2018-09-05T00:02:32.348Z,93.80
2018-09-05T00:05:01.379Z,93.80
2018-09-05T00:07:30.434Z,93.90
2018-09-05T00:09:59.534Z,94.00
2018-09-05T00:12:28.520Z,94.20
2018-09-05T00:14:57.505Z,94.30
2018-09-05T00:17:26.742Z,94.40
2018-09-05T00:19:55.712Z,94.50
2018-09-05T00:22:24.704Z,94.60
2018-09-05T00:24:53.888Z,94.40
2018-09-05T00:27:22.864Z,94.40
2018-09-05T00:29:52.054Z,94.80
2018-09-05T00:32:21.076Z,94.70
2018-09-05T00:34:50.213Z,94.70
2018-09-05T00:37:19.226Z,94.50
2018-09-05T00:40:22.728Z,94.40
2018-09-05T00:42:52.141Z,94.30
2018-09-05T00:45:21.139Z,94.30
2018-09-05T00:47:50.107Z,94.10
2018-09-05T00:50:19.132Z,94.10
2018-09-05T00:52:48.117Z,94.00
2018-09-05T00:55:17.153Z,94.10
2018-09-05T00:57:46.218Z,94.20
2018-09-05T01:00:15.275Z,94.30
2018-09-05T01:02:44.237Z,94.40
2018-09-05T01:05:13.245Z,94.30
2018-09-05T01:07:42.329Z,94.50
2018-09-05T01:10:11.321Z,94.50
2018-09-05T01:12:40.329Z,94.60
2018-09-05T01:15:09.309Z,94.60
2018-09-05T01:17:38.368Z,94.50
2018-09-05T01:20:07.756Z,94.60
2018-09-05T01:22:36.738Z,94.80
2018-09-05T01:25:05.879Z,94.80
2018-09-05T01:27:35.249Z,94.90
2018-09-05T01:30:04.336Z,95.10
2018-09-05T01:32:33.349Z,95.00
2018-09-05T01:35:02.356Z,95.10
2018-09-05T01:37:31.426Z,95.30
2018-09-05T01:40:00.436Z,95.20
2018-09-05T01:42:29.452Z,95.10
2018-09-05T01:44:58.428Z,95.20
2018-09-05T01:47:27.476Z,95.20
2018-09-05T01:49:56.428Z,95.20
2018-09-05T01:52:25.416Z,95.40
2018-09-05T01:54:54.380Z,95.30
2018-09-05T01:57:23.396Z,95.10
2018-09-05T01:59:52.371Z,95.30
2018-09-05T02:02:21.387Z,95.30
2018-09-05T02:04:50.383Z,95.20
2018-09-05T02:07:19.356Z,95.10
2018-09-05T02:09:48.387Z,95.00
2018-09-05T02:12:17.522Z,95.10
2018-09-05T02:14:46.482Z,95.30
2018-09-05T02:17:15.509Z,95.50
2018-09-05T02:19:44.703Z,95.30
2018-09-05T02:22:13.696Z,95.30
2018-09-05T02:24:42.703Z,95.40
2018-09-05T02:27:11.668Z,95.30
2018-09-05T02:29:40.693Z,95.20
2018-09-05T02:32:09.703Z,95.30
2018-09-05T02:34:38.783Z,95.40
2018-09-05T02:37:07.767Z,95.40
2018-09-05T02:42:12.024Z,95.40
2018-09-05T02:44:41.037Z,95.30
2018-09-05T02:47:10.039Z,95.50
2018-09-05T02:49:39.024Z,95.60
2018-09-05T02:52:08.031Z,95.60
2018-09-05T02:54:37.025Z,95.70
2018-09-05T02:57:06.047Z,95.70
2018-09-05T02:59:35.043Z,95.80
2018-09-05T03:02:04.064Z,95.90
2018-09-05T03:04:33.076Z,95.90
2018-09-05T03:07:02.080Z,96.00
2018-09-05T03:09:31.143Z,95.90
2018-09-05T03:12:00.129Z,95.90
2018-09-05T03:14:29.329Z,95.90
2018-09-05T03:16:58.353Z,95.90
2018-09-05T03:19:27.361Z,96.00
2018-09-05T03:21:56.539Z,96.00
2018-09-05T03:24:25.644Z,96.10
2018-09-05T03:26:54.632Z,96.00
2018-09-05T03:29:23.959Z,96.00
2018-09-05T03:31:52.920Z,96.00
2018-09-05T03:34:21.902Z,96.10
2018-09-05T03:36:50.877Z,96.10
2018-09-05T03:39:19.924Z,96.00
2018-09-05T03:41:48.952Z,95.90
2018-09-05T03:44:17.983Z,96.00
2018-09-05T03:46:46.990Z,96.10
2018-09-05T03:49:15.988Z,95.90
2018-09-05T03:51:45.024Z,95.90
2018-09-05T03:54:13.980Z,96.10
2018-09-05T03:56:43.016Z,96.20
2018-09-05T03:59:12.026Z,96.20
2018-09-05T04:01:41.028Z,96.00
2018-09-05T04:04:10.012Z,96.20
2018-09-05T04:06:39.032Z,96.40
2018-09-05T04:09:08.551Z,96.40
2018-09-05T04:11:37.624Z,96.50
2018-09-05T04:14:06.655Z,96.50
2018-09-05T04:16:35.636Z,96.40
2018-09-05T04:19:04.638Z,96.40
2018-09-05T04:21:34.040Z,96.50
2018-09-05T04:24:03.036Z,96.30
2018-09-05T04:26:32.013Z,96.20
2018-09-05T04:29:01.041Z,96.20
2018-09-05T04:31:30.052Z,96.20
2018-09-05T04:33:59.039Z,96.20
2018-09-05T04:36:28.038Z,96.30
2018-09-05T04:38:57.023Z,96.20
2018-09-05T04:41:26.403Z,96.20
2018-09-05T04:43:55.373Z,96.30
2018-09-05T04:46:24.429Z,96.40
2018-09-05T04:48:53.434Z,96.70
2018-09-05T04:51:22.402Z,96.80
2018-09-05T04:53:51.419Z,97.10
2018-09-05T04:56:20.447Z,96.80
2018-09-05T04:58:49.420Z,96.90
2018-09-05T05:01:18.759Z,97.20
2018-09-05T05:03:47.791Z,97.00
2018-09-05T05:06:16.772Z,96.80
2018-09-05T05:08:45.805Z,96.60
2018-09-05T05:11:14.784Z,96.60
2018-09-05T05:13:43.781Z,96.60
2018-09-05T05:16:12.783Z,96.60
2018-09-05T05:18:41.793Z,96.40
2018-09-05T05:21:10.744Z,96.40
2018-09-05T05:23:39.821Z,96.20
2018-09-05T05:26:08.788Z,96.20
2018-09-05T05:28:37.785Z,96.20
2018-09-05T05:31:06.777Z,96.10
2018-09-05T05:33:35.756Z,95.90
2018-09-05T05:36:05.027Z,95.70
2018-09-05T05:38:34.008Z,96.00
2018-09-05T05:41:02.980Z,96.10
2018-09-05T05:43:32.094Z,96.30
2018-09-05T05:46:01.058Z,96.10
2018-09-05T05:48:30.039Z,95.80
2018-09-05T05:50:59.049Z,95.70
2018-09-05T05:53:28.027Z,95.10
2018-09-05T05:55:57.074Z,95.30
2018-09-05T05:58:26.056Z,95.20
2018-09-05T06:00:55.211Z,94.90
2018-09-05T06:03:24.428Z,94.90
2018-09-05T06:05:53.510Z,94.80
2018-09-05T06:08:22.450Z,94.70
2018-09-05T06:10:51.451Z,94.40
2018-09-05T06:13:20.454Z,94.40
2018-09-05T06:15:49.477Z,94.70
2018-09-05T06:18:18.507Z,94.70
2018-09-05T06:20:47.597Z,94.80
2018-09-05T06:23:16.574Z,95.00
2018-09-05T06:25:45.562Z,95.20
2018-09-05T06:28:14.568Z,95.20
2018-09-05T06:30:43.602Z,95.00
2018-09-05T06:33:12.557Z,94.80
2018-09-05T06:35:41.544Z,94.50
2018-09-05T06:38:10.532Z,94.10
2018-09-05T06:40:39.547Z,93.70
2018-09-05T06:43:08.549Z,93.80
2018-09-05T06:45:37.748Z,93.50
2018-09-05T06:48:06.399Z,93.40
2018-09-05T06:50:35.387Z,93.30
2018-09-05T06:53:04.475Z,93.00
2018-09-05T06:55:33.452Z,92.40
2018-09-05T06:58:02.502Z,91.60
2018-09-05T07:00:31.551Z,91.50
2018-09-05T07:03:00.567Z,90.80
2018-09-05T07:05:29.580Z,90.30
2018-09-05T07:07:58.647Z,90.20
2018-09-05T07:10:27.641Z,88.80
2018-09-05T07:12:56.646Z,88.50
2018-09-05T07:15:25.712Z,85.40
2018-09-05T07:17:54.789Z,83.40
2018-09-05T07:20:23.770Z,80.80
2018-09-05T07:22:52.793Z,81.10
2018-09-05T07:25:21.806Z,78.50
2018-09-05T07:27:50.802Z,76.80
2018-09-05T07:30:19.850Z,74.30
2018-09-05T07:32:48.796Z,71.10
2018-09-05T07:35:17.999Z,68.90
2018-09-05T07:37:47.104Z,67.10
2018-09-05T07:40:16.124Z,65.50
2018-09-05T07:42:45.456Z,64.20
2018-09-05T07:45:14.557Z,64.20
2018-09-05T07:47:43.556Z,64.70
2018-09-05T07:50:12.588Z,61.50
2018-09-05T07:52:41.586Z,60.60
2018-09-05T07:55:10.582Z,64.30
2018-09-05T07:57:39.588Z,63.10
2018-09-05T08:00:08.657Z,64.70
2018-09-05T08:02:37.664Z,65.10
2018-09-05T08:05:06.696Z,62.50
2018-09-05T08:07:36.100Z,63.20
2018-09-05T08:10:05.517Z,66.00
2018-09-05T08:12:34.525Z,64.90
2018-09-05T08:15:03.634Z,65.10
2018-09-05T08:17:32.716Z,67.60
2018-09-05T08:20:01.734Z,67.60
2018-09-05T08:22:30.716Z,67.40
2018-09-05T08:24:59.929Z,64.90
2018-09-05T08:27:28.916Z,64.30
2018-09-05T08:29:57.991Z,66.70
2018-09-05T08:32:27.088Z,66.90
2018-09-05T08:34:56.329Z,68.00
2018-09-05T08:37:27.088Z,68.20
2018-09-05T08:39:56.290Z,69.00
2018-09-05T08:42:25.399Z,69.30
2018-09-05T08:44:54.441Z,69.60
2018-09-05T08:47:23.759Z,69.50
2018-09-05T08:49:53.225Z,70.50
2018-09-05T08:55:02.155Z,70.20
2018-09-05T08:57:31.228Z,68.10
2018-09-05T09:00:01.171Z,68.40
2018-09-05T09:02:30.156Z,67.20
2018-09-05T09:04:59.268Z,67.40
2018-09-05T09:07:28.464Z,65.90
2018-09-05T09:09:57.558Z,64.50
2018-09-05T09:12:26.616Z,64.20
2018-09-05T09:14:55.613Z,66.10
2018-09-05T09:17:24.630Z,66.90
2018-09-05T09:19:53.628Z,67.30
2018-09-05T09:22:22.628Z,67.90
2018-09-05T09:24:51.716Z,67.20
2018-09-05T09:27:20.820Z,67.20
2018-09-05T09:29:50.008Z,67.10
2018-09-05T09:32:19.076Z,66.90
2018-09-05T09:34:48.133Z,65.60
2018-09-05T09:37:17.164Z,64.70
2018-09-05T09:39:46.169Z,63.90
2018-09-05T09:42:15.188Z,65.30
2018-09-05T09:44:44.175Z,65.70
2018-09-05T09:47:13.190Z,65.10
2018-09-05T09:49:42.180Z,64.80
2018-09-05T09:52:16.694Z,61.80
2018-09-05T09:54:45.700Z,60.90
2018-09-05T09:57:14.788Z,61.90
2018-09-05T09:59:43.821Z,62.60
2018-09-05T10:02:18.108Z,61.50
2018-09-05T10:04:52.605Z,60.40
2018-09-05T10:07:26.919Z,59.10
2018-09-05T10:10:00.361Z,57.30
2018-09-05T10:12:34.501Z,56.50
2018-09-05T10:16:11.483Z,55.00
2018-09-05T10:18:43.225Z,55.00
2018-09-05T10:21:12.264Z,54.60
2018-09-05T10:23:41.296Z,56.60
2018-09-05T10:26:10.387Z,56.80
2018-09-05T10:28:39.408Z,54.70
2018-09-05T10:31:08.670Z,54.20
2018-09-05T10:33:37.791Z,55.20
2018-09-05T10:36:07.107Z,56.20
2018-09-05T10:38:36.182Z,54.80
2018-09-05T10:41:05.259Z,54.10
2018-09-05T10:43:34.263Z,54.00
2018-09-05T10:46:03.302Z,54.40
2018-09-05T10:48:32.321Z,53.40
2018-09-05T10:51:01.317Z,54.70
2018-09-05T10:53:30.324Z,53.80
2018-09-05T10:55:59.332Z,52.70
2018-09-05T10:58:28.364Z,52.20
2018-09-05T11:00:57.333Z,52.70
2018-09-05T11:03:26.332Z,52.80
2018-09-05T11:05:55.422Z,51.00
2018-09-05T11:08:24.436Z,51.80
2018-09-05T11:10:53.569Z,49.50
2018-09-05T11:13:22.577Z,51.90
2018-09-05T11:15:51.584Z,52.50
2018-09-05T11:18:20.625Z,52.20
2018-09-05T11:20:49.681Z,52.40
2018-09-05T11:23:18.708Z,53.30
2018-09-05T11:25:47.769Z,53.40
2018-09-05T11:28:16.754Z,53.10
2018-09-05T11:30:45.784Z,52.70
2018-09-05T11:33:14.744Z,52.70
2018-09-05T11:35:43.772Z,52.50
2018-09-05T11:38:12.771Z,51.40
2018-09-05T11:40:41.804Z,51.20
2018-09-05T11:43:11.136Z,50.80
2018-09-05T11:45:40.141Z,50.70
2018-09-05T11:48:09.193Z,50.90
2018-09-05T11:50:38.212Z,50.70
2018-09-05T11:53:07.197Z,48.50
2018-09-05T11:55:36.188Z,47.70
2018-09-05T11:58:05.216Z,48.20
2018-09-05T12:00:34.217Z,48.30
2018-09-05T12:03:03.268Z,46.50
2018-09-05T12:05:32.306Z,44.80
2018-09-05T12:08:01.292Z,46.20
2018-09-05T12:10:30.276Z,47.10
2018-09-05T12:12:59.578Z,47.80
2018-09-05T12:15:28.565Z,47.00
2018-09-05T12:17:57.536Z,46.50
2018-09-05T12:20:26.551Z,46.50
2018-09-05T12:22:55.614Z,47.30
2018-09-05T12:25:24.644Z,47.00
2018-09-05T12:27:53.731Z,48.00
2018-09-05T12:30:23.146Z,48.30
2018-09-05T12:32:52.304Z,47.60
2018-09-05T12:35:21.307Z,48.50
2018-09-05T12:37:50.327Z,49.00
2018-09-05T12:40:19.315Z,48.40
2018-09-05T12:42:48.442Z,47.90
2018-09-05T12:45:17.800Z,47.10
2018-09-05T12:47:46.801Z,46.40
2018-09-05T12:50:16.077Z,46.70
2018-09-05T12:52:45.126Z,48.10
2018-09-05T12:55:14.232Z,47.50
2018-09-05T12:57:43.214Z,47.00
2018-09-05T13:00:12.353Z,46.60
2018-09-05T13:02:41.299Z,46.40
2018-09-05T13:05:10.380Z,45.50
2018-09-05T13:07:39.356Z,45.50
2018-09-05T13:10:08.404Z,46.00
2018-09-05T13:12:37.636Z,45.30
2018-09-05T13:15:06.685Z,44.60
2018-09-05T13:17:35.700Z,44.60
2018-09-05T13:20:04.743Z,44.50
2018-09-05T13:22:33.883Z,44.30
2018-09-05T13:25:02.920Z,44.30
2018-09-05T13:27:31.997Z,44.20
2018-09-05T13:30:00.993Z,44.40
2018-09-05T13:32:29.977Z,44.80
2018-09-05T13:34:59.000Z,44.80
2018-09-05T13:37:27.971Z,45.40
2018-09-05T13:39:57.049Z,45.60
2018-09-05T13:42:26.043Z,45.90
2018-09-05T13:44:55.119Z,47.20
2018-09-05T13:47:24.201Z,46.90
2018-09-05T13:49:53.189Z,47.20
2018-09-05T13:52:22.191Z,46.80
2018-09-05T13:54:51.209Z,46.30
2018-09-05T13:57:20.284Z,46.30
2018-09-05T13:59:49.315Z,46.10
2018-09-05T14:02:18.300Z,46.80
2018-09-05T14:04:47.325Z,47.30
2018-09-05T14:07:16.344Z,47.30
2018-09-05T14:09:45.388Z,47.60
2018-09-05T14:12:14.716Z,46.40
2018-09-05T14:14:43.724Z,46.70
2018-09-05T14:17:19.449Z,48.70
2018-09-05T14:19:48.443Z,50.00
2018-09-05T14:22:17.619Z,50.20
2018-09-05T14:24:46.619Z,50.70
2018-09-05T14:27:15.638Z,50.90
2018-09-05T14:29:44.673Z,51.30
2018-09-05T14:32:13.636Z,51.50
2018-09-05T14:34:42.647Z,51.60
2018-09-05T14:37:11.662Z,51.60
2018-09-05T14:39:40.670Z,51.80
2018-09-05T14:42:09.647Z,52.10
2018-09-05T14:44:38.645Z,52.00
2018-09-05T14:47:07.667Z,52.10
2018-09-05T14:49:36.656Z,51.90
2018-09-05T14:52:05.685Z,52.00
2018-09-05T14:54:34.705Z,52.10
2018-09-05T14:57:03.742Z,51.80
2018-09-05T14:59:32.713Z,51.70
2018-09-05T15:02:01.739Z,52.40
2018-09-05T15:04:30.720Z,52.20
2018-09-05T15:06:59.769Z,52.00
2018-09-05T15:09:28.740Z,52.10
2018-09-05T15:11:57.808Z,52.10
2018-09-05T15:14:26.824Z,51.30
2018-09-05T15:16:55.905Z,51.80
2018-09-05T15:19:24.876Z,53.00
2018-09-05T15:21:53.957Z,54.10
2018-09-05T15:24:22.948Z,54.10
2018-09-05T15:26:52.033Z,53.90
2018-09-05T15:29:21.011Z,54.10
2018-09-05T15:31:50.025Z,54.20
2018-09-05T15:34:19.156Z,54.10
2018-09-05T15:36:48.185Z,54.40
2018-09-05T15:39:17.215Z,54.70
2018-09-05T15:41:46.197Z,54.90
2018-09-05T15:44:15.383Z,55.20
2018-09-05T15:46:44.396Z,55.30
2018-09-05T15:49:13.400Z,55.90
2018-09-05T15:51:42.413Z,56.10
2018-09-05T15:54:11.483Z,56.00
2018-09-05T15:56:40.440Z,56.50
2018-09-05T15:59:09.454Z,56.60
2018-09-05T16:01:38.428Z,56.30
2018-09-05T16:04:07.408Z,56.30
2018-09-05T16:06:36.429Z,56.50
2018-09-05T16:09:07.753Z,56.10
2018-09-05T16:11:36.812Z,56.20
2018-09-05T16:14:06.126Z,56.60
2018-09-05T16:16:35.151Z,57.00
2018-09-05T16:19:04.178Z,57.10
2018-09-05T16:21:33.245Z,56.70
2018-09-05T16:24:02.255Z,57.00
2018-09-05T16:26:31.361Z,58.00
2018-09-05T16:29:00.476Z,58.90
2018-09-05T16:31:29.476Z,59.60
2018-09-05T16:33:58.505Z,59.90
2018-09-05T16:36:27.533Z,60.40
2018-09-05T16:38:56.555Z,61.10
2018-09-05T16:41:25.573Z,61.70
2018-09-05T16:43:54.628Z,62.30
2018-09-05T16:46:23.652Z,62.30
2018-09-05T16:48:52.668Z,62.80
2018-09-05T16:51:21.660Z,63.80
2018-09-05T16:53:51.032Z,64.50
2018-09-05T16:56:20.092Z,65.00
2018-09-05T16:58:49.089Z,65.30
2018-09-05T17:01:18.129Z,65.50
2018-09-05T17:03:47.469Z,66.80
2018-09-05T17:06:16.446Z,67.90
2018-09-05T17:08:45.461Z,69.20
2018-09-05T17:11:14.611Z,68.40
2018-09-05T17:13:43.548Z,67.00
2018-09-05T17:16:12.609Z,65.20
2018-09-05T17:18:41.666Z,66.30
2018-09-05T17:21:10.672Z,67.30
2018-09-05T17:23:39.705Z,68.30
2018-09-05T17:26:08.748Z,68.50
2018-09-05T17:28:37.763Z,68.50
2018-09-05T17:31:07.291Z,69.30
2018-09-05T17:33:36.264Z,69.40
2018-09-05T17:36:05.284Z,69.20
2018-09-05T17:38:34.291Z,71.10
2018-09-05T17:41:03.326Z,73.90
2018-09-05T17:43:32.344Z,75.00
2018-09-05T17:46:01.417Z,82.50
2018-09-05T17:48:30.424Z,83.60
2018-09-05T17:50:59.539Z,89.20
2018-09-05T17:53:28.684Z,91.00
2018-09-05T17:55:57.669Z,92.10
2018-09-05T17:58:26.792Z,90.10
2018-09-05T18:00:56.161Z,88.50
2018-09-05T18:03:25.153Z,88.20
2018-09-05T18:05:54.129Z,87.70
2018-09-05T18:08:23.234Z,88.10
2018-09-05T18:10:52.399Z,88.90
2018-09-05T18:13:21.411Z,90.20
2018-09-05T18:15:50.403Z,88.60
2018-09-05T18:18:19.454Z,86.10
2018-09-05T18:20:48.500Z,84.20
2018-09-05T18:23:17.538Z,83.70
2018-09-05T18:25:46.524Z,88.90
2018-09-05T18:28:15.511Z,91.10
2018-09-05T18:30:44.519Z,92.80
2018-09-05T18:33:13.815Z,93.50
2018-09-05T18:35:42.890Z,93.50
2018-09-05T18:38:11.838Z,93.60
2018-09-05T18:40:40.992Z,93.60
2018-09-05T18:43:09.971Z,92.70
2018-09-05T18:45:39.254Z,93.10
2018-09-05T18:48:08.235Z,93.30
2018-09-05T18:50:37.310Z,95.00
2018-09-05T18:53:11.691Z,95.30
2018-09-05T18:55:42.300Z,95.70
2018-09-05T18:58:11.410Z,95.30
2018-09-05T19:00:40.501Z,94.50
2018-09-05T19:03:10.117Z,94.50
2018-09-05T19:05:39.096Z,95.10
2018-09-05T19:08:08.310Z,94.70
2018-09-05T19:10:37.308Z,94.80
2018-09-05T19:13:06.332Z,93.60
2018-09-05T19:15:35.773Z,93.00
2018-09-05T19:18:04.793Z,92.30
2018-09-05T19:20:33.848Z,91.90
2018-09-05T19:23:02.849Z,91.40
2018-09-05T19:25:31.823Z,91.30
2018-09-05T19:28:00.825Z,92.80
2018-09-05T19:30:29.864Z,93.70
2018-09-05T19:32:58.863Z,94.20
2018-09-05T19:35:27.982Z,94.50
2018-09-05T19:37:56.956Z,94.80
2018-09-05T19:40:25.938Z,95.10
2018-09-05T19:42:54.959Z,95.10
2018-09-05T19:45:24.223Z,95.40
2018-09-05T19:47:53.184Z,95.30
2018-09-05T19:50:22.395Z,95.30
2018-09-05T19:52:51.276Z,95.20
2018-09-05T19:55:20.313Z,95.10
2018-09-05T19:57:49.407Z,93.90
2018-09-05T20:00:18.391Z,92.80
2018-09-05T20:02:47.523Z,91.80
2018-09-05T20:05:16.508Z,91.40
2018-09-05T20:07:45.524Z,91.10
2018-09-05T20:10:14.549Z,90.90
2018-09-05T20:12:43.559Z,91.20
2018-09-05T20:15:12.521Z,91.00
2018-09-05T20:17:41.529Z,91.40
2018-09-05T20:20:10.524Z,91.80
2018-09-05T20:22:39.492Z,92.30
2018-09-05T20:25:08.580Z,92.40
2018-09-05T20:27:37.689Z,92.50
2018-09-05T20:30:06.679Z,94.20
2018-09-05T20:32:35.764Z,94.40
2018-09-05T20:35:04.885Z,94.20
2018-09-05T20:37:33.867Z,95.20
2018-09-05T20:40:02.933Z,95.60
2018-09-05T20:42:31.892Z,95.80
2018-09-05T20:45:00.880Z,95.70
2018-09-05T20:47:29.947Z,96.10
2018-09-05T20:49:59.249Z,96.30
2018-09-05T20:52:28.216Z,95.70
2018-09-05T20:54:57.228Z,95.20
2018-09-05T20:57:26.232Z,95.70
2018-09-05T20:59:55.209Z,95.10
2018-09-05T21:02:24.212Z,95.40
2018-09-05T21:04:53.299Z,95.60
2018-09-05T21:07:22.280Z,95.90
2018-09-05T21:09:51.293Z,95.80
2018-09-05T21:12:20.267Z,95.80
2018-09-05T21:14:49.621Z,95.50
2018-09-05T21:17:18.652Z,95.20
2018-09-05T21:19:47.655Z,94.70
2018-09-05T21:22:17.778Z,94.60
2018-09-05T21:24:47.256Z,94.20
2018-09-05T21:27:16.304Z,93.90
2018-09-05T21:29:45.729Z,94.20
2018-09-05T21:32:14.688Z,93.90
2018-09-05T21:34:43.715Z,93.70
2018-09-05T21:37:12.683Z,93.60
2018-09-05T21:39:41.652Z,93.80
2018-09-05T21:42:10.661Z,94.20
2018-09-05T21:44:39.693Z,94.10
2018-09-05T21:47:08.960Z,94.90
2018-09-05T21:49:37.935Z,95.10
2018-09-05T21:52:06.999Z,94.00
2018-09-05T21:54:36.288Z,93.80
2018-09-05T21:57:05.299Z,93.60
2018-09-05T21:59:34.320Z,93.30
2018-09-05T22:02:03.337Z,93.20
2018-09-05T22:04:32.759Z,93.10
2018-09-05T22:07:01.750Z,93.30
2018-09-05T22:09:30.780Z,93.10
2018-09-05T22:12:00.049Z,93.40
2018-09-05T22:14:29.044Z,93.70
2018-09-05T22:16:58.080Z,93.70
2018-09-05T22:19:27.085Z,93.60
2018-09-05T22:21:56.060Z,94.10
2018-09-05T22:24:25.034Z,93.90
2018-09-05T22:26:54.024Z,94.10
2018-09-05T22:29:23.114Z,94.50
2018-09-05T22:31:52.101Z,94.40
2018-09-05T22:34:21.125Z,94.60
2018-09-05T22:36:50.079Z,94.90
2018-09-05T22:39:19.138Z,94.90
2018-09-05T22:41:48.146Z,95.10
2018-09-05T22:44:28.807Z,94.80
2018-09-05T22:47:09.001Z,94.80
2018-09-05T22:51:59.346Z,94.80
2018-09-05T22:54:44.986Z,95.00
2018-09-05T22:57:45.680Z,95.40
2018-09-05T23:01:28.728Z,95.60
2018-09-05T23:04:26.003Z,95.60
2018-09-05T23:08:03.685Z,95.80
2018-09-05T23:10:44.118Z,95.90
2018-09-05T23:13:24.367Z,96.30
2018-09-05T23:16:04.610Z,96.20
2018-09-05T23:19:46.049Z,96.40
2018-09-05T23:22:15.041Z,96.40
2018-09-05T23:24:44.030Z,96.50
2018-09-05T23:27:13.031Z,96.40
2018-09-05T23:29:42.002Z,96.60
2018-09-05T23:32:11.034Z,96.50
2018-09-05T23:34:40.034Z,96.60
2018-09-05T23:37:09.033Z,96.70
2018-09-05T23:39:38.046Z,96.60
2018-09-05T23:42:07.036Z,96.60
2018-09-05T23:44:36.028Z,96.70
2018-09-05T23:47:05.202Z,96.70
2018-09-05T23:49:34.205Z,96.60
2018-09-05T23:52:03.337Z,96.70
2018-09-05T23:54:32.343Z,97.00
2018-09-05T23:57:01.356Z,97.10
2018-09-05T23:59:30.321Z,96.90
